createdAt,value
2023-02-07T00:01:46.605Z,-9.00
2023-02-07T00:06:54.137Z,-9.20
2023-02-07T00:12:05.163Z,-9.20
2023-02-07T00:17:13.076Z,-9.00
2023-02-07T00:22:23.136Z,-10.00
2023-02-07T00:27:35.506Z,-9.90
2023-02-07T00:32:46.197Z,-9.40
2023-02-07T00:37:54.357Z,-9.20
2023-02-07T00:43:05.336Z,-9.30
2023-02-07T00:48:16.702Z,-9.40
2023-02-07T00:53:26.464Z,-9.20
2023-02-07T00:58:43.769Z,-9.10
2023-02-07T01:03:51.268Z,-9.30
2023-02-07T01:09:02.058Z,-9.20
2023-02-07T01:14:10.086Z,-9.40
2023-02-07T01:19:18.873Z,-9.70
2023-02-07T01:24:28.987Z,-9.60
2023-02-07T01:29:41.471Z,-9.50
2023-02-07T01:34:49.892Z,-9.10
2023-02-07T01:39:58.592Z,-9.10
2023-02-07T01:45:25.114Z,-9.70
2023-02-07T01:50:37.824Z,-9.50
2023-02-07T01:55:50.185Z,-10.40
2023-02-07T02:01:07.233Z,-10.20
2023-02-07T02:06:17.462Z,-9.80
2023-02-07T02:11:48.128Z,-9.60
2023-02-07T02:17:11.497Z,-9.70
2023-02-07T02:22:51.881Z,-9.50
2023-02-07T02:28:28.070Z,-9.40
2023-02-07T02:33:54.285Z,-9.40
2023-02-07T02:39:14.836Z,-9.70
2023-02-07T02:44:31.257Z,-9.60
2023-02-07T02:49:41.696Z,-9.50
2023-02-07T02:54:50.699Z,-9.80
2023-02-07T03:00:29.284Z,-10.40
2023-02-07T03:06:00.078Z,-9.90
2023-02-07T03:11:25.167Z,-10.00
2023-02-07T03:16:55.791Z,-9.80
2023-02-07T03:22:13.047Z,-9.70
2023-02-07T03:27:23.016Z,-10.00
2023-02-07T03:32:36.126Z,-10.40
2023-02-07T03:37:54.392Z,-10.50
2023-02-07T03:43:12.279Z,-10.10
2023-02-07T03:48:20.692Z,-10.20
2023-02-07T03:53:29.462Z,-10.20
2023-02-07T03:58:37.838Z,-10.50
2023-02-07T04:03:46.135Z,-10.40
2023-02-07T04:08:53.300Z,-10.40
2023-02-07T04:14:03.436Z,-10.30
2023-02-07T04:19:11.540Z,-10.40
2023-02-07T04:24:19.369Z,-10.60
2023-02-07T04:29:28.812Z,-10.20
2023-02-07T04:34:39.090Z,-10.30
2023-02-07T04:39:48.751Z,-10.40
2023-02-07T04:44:58.340Z,-10.50
2023-02-07T04:50:08.947Z,-10.50
2023-02-07T04:55:20.646Z,-11.30
2023-02-07T05:00:30.920Z,-11.00
2023-02-07T05:05:45.580Z,-10.60
2023-02-07T05:11:01.311Z,-10.50
2023-02-07T05:16:09.956Z,-10.70
2023-02-07T05:21:17.612Z,-10.40
2023-02-07T05:26:30.170Z,-10.30
2023-02-07T05:31:56.686Z,-10.50
2023-02-07T05:37:04.628Z,-10.20
2023-02-07T05:42:16.604Z,-10.10
2023-02-07T05:47:26.556Z,-10.00
2023-02-07T05:52:35.770Z,-10.60
2023-02-07T05:57:47.019Z,-10.90
2023-02-07T06:02:54.867Z,-10.80
2023-02-07T06:08:03.176Z,-11.20
2023-02-07T06:13:13.996Z,-11.00
2023-02-07T06:18:21.737Z,-10.50
2023-02-07T06:23:29.108Z,-10.70
2023-02-07T06:28:39.652Z,-10.90
2023-02-07T06:33:50.688Z,-10.80
2023-02-07T06:38:58.279Z,-10.30
2023-02-07T06:44:11.499Z,-10.60
2023-02-07T06:49:26.814Z,-10.30
2023-02-07T06:54:35.364Z,-10.50
2023-02-07T06:59:43.065Z,-10.50
2023-02-07T07:04:54.289Z,-10.30
2023-02-07T07:10:01.405Z,-10.00
2023-02-07T07:15:11.355Z,-9.80
2023-02-07T07:20:18.125Z,-9.30
2023-02-07T07:25:29.868Z,-9.20
2023-02-07T07:30:46.022Z,-8.90
2023-02-07T07:35:59.481Z,-8.60
2023-02-07T07:41:07.301Z,-8.00
2023-02-07T07:46:18.146Z,-7.50
2023-02-07T07:51:27.645Z,-7.10
2023-02-07T07:56:35.738Z,-6.90
2023-02-07T08:01:43.695Z,-6.70
2023-02-07T08:06:51.506Z,-7.10
2023-02-07T08:12:00.200Z,-6.10
2023-02-07T08:17:08.256Z,-5.50
2023-02-07T08:22:15.962Z,-5.00
2023-02-07T08:27:23.463Z,-4.70
2023-02-07T08:32:31.255Z,-4.20
2023-02-07T08:37:42.589Z,-3.70
2023-02-07T08:42:50.250Z,-3.80
2023-02-07T08:48:00.136Z,-3.20
2023-02-07T08:53:11.492Z,-3.30
2023-02-07T08:58:18.173Z,-2.90
2023-02-07T09:03:26.479Z,-2.70
2023-02-07T09:08:33.877Z,-2.50
2023-02-07T09:13:41.478Z,-2.40
2023-02-07T09:18:50.334Z,-1.90
2023-02-07T09:23:58.284Z,-1.70
2023-02-07T09:29:06.017Z,-1.50
2023-02-07T09:34:14.448Z,-1.10
2023-02-07T09:39:22.201Z,-1.00
2023-02-07T09:44:53.734Z,-0.30
2023-02-07T09:50:11.645Z,-0.40
2023-02-07T09:55:28.889Z,-0.20
2023-02-07T10:00:39.520Z,-0.70
2023-02-07T10:06:17.958Z,-0.10
2023-02-07T10:11:30.967Z,0.90
2023-02-07T10:17:16.537Z,0.60
2023-02-07T10:22:50.242Z,0.50
2023-02-07T10:28:20.540Z,0.80
2023-02-07T10:33:34.428Z,1.20
2023-02-07T10:38:56.710Z,1.40
2023-02-07T10:43:58.167Z,1.50
2023-02-07T10:49:06.125Z,1.80
2023-02-07T10:54:20.293Z,1.70
2023-02-07T10:59:43.758Z,1.90
2023-02-07T11:04:51.153Z,1.90
2023-02-07T11:10:20.414Z,1.90
2023-02-07T11:15:33.070Z,2.00
2023-02-07T11:20:43.071Z,1.70
2023-02-07T11:25:50.486Z,1.80
2023-02-07T11:31:09.822Z,2.00
2023-02-07T11:36:27.255Z,2.20
2023-02-07T11:41:35.539Z,2.10
2023-02-07T11:46:45.031Z,2.10
2023-02-07T11:51:58.922Z,2.40
2023-02-07T11:57:17.174Z,2.40
2023-02-07T12:02:27.212Z,1.90
2023-02-07T12:07:40.812Z,2.00
2023-02-07T12:12:52.810Z,2.30
2023-02-07T12:18:16.158Z,2.40
2023-02-07T12:24:01.142Z,2.20
2023-02-07T12:29:37.653Z,1.70
2023-02-07T12:34:58.302Z,1.80
2023-02-07T12:40:38.373Z,1.80
2023-02-07T12:45:59.131Z,1.00
2023-02-07T12:51:40.210Z,0.80
2023-02-07T12:56:59.780Z,1.30
2023-02-07T13:03:02.490Z,1.50
2023-02-07T13:08:33.204Z,1.20
2023-02-07T13:14:12.940Z,1.10
2023-02-07T13:19:45.347Z,1.30
2023-02-07T13:24:53.069Z,1.50
2023-02-07T13:30:02.766Z,1.60
2023-02-07T13:35:17.170Z,1.90
2023-02-07T13:40:56.606Z,1.90
2023-02-07T13:46:29.191Z,1.90
2023-02-07T13:52:10.926Z,2.00
2023-02-07T13:57:42.502Z,1.80
2023-02-07T14:02:59.505Z,2.00
2023-02-07T14:08:11.312Z,1.80
2023-02-07T14:13:34.440Z,1.70
2023-02-07T14:18:51.881Z,1.50
2023-02-07T14:24:12.356Z,1.50
2023-02-07T14:29:29.725Z,1.20
2023-02-07T14:35:00.112Z,0.90
2023-02-07T14:40:26.651Z,0.90
2023-02-07T14:45:37.022Z,0.80
2023-02-07T14:50:48.449Z,0.60
2023-02-07T14:56:00.017Z,0.30
2023-02-07T15:01:19.678Z,0.30
2023-02-07T15:06:32.588Z,0.50
2023-02-07T15:11:38.441Z,0.40
2023-02-07T15:16:45.946Z,0.50
2023-02-07T15:21:53.206Z,0.50
2023-02-07T15:27:03.835Z,0.40
2023-02-07T15:32:32.065Z,0.10
2023-02-07T15:37:40.940Z,-0.30
2023-02-07T15:42:59.407Z,-0.40
2023-02-07T15:48:12.012Z,-0.50
2023-02-07T15:53:23.330Z,-0.90
2023-02-07T15:58:38.311Z,-1.10
2023-02-07T16:03:47.805Z,-1.30
2023-02-07T16:08:58.961Z,-1.50
2023-02-07T16:14:26.027Z,-1.40
2023-02-07T16:19:34.803Z,-1.40
2023-02-07T16:24:47.232Z,-1.60
2023-02-07T16:29:56.151Z,-1.60
2023-02-07T16:35:02.850Z,-1.80
2023-02-07T16:40:13.549Z,-2.10
2023-02-07T16:45:28.945Z,-2.30
2023-02-07T16:50:36.985Z,-2.40
2023-02-07T16:55:43.865Z,-2.40
2023-02-07T17:00:51.444Z,-2.50
2023-02-07T17:05:58.973Z,-2.80
2023-02-07T17:11:09.916Z,-3.10
2023-02-07T17:16:17.078Z,-3.30
2023-02-07T17:21:24.652Z,-3.40
2023-02-07T17:26:35.279Z,-3.30
2023-02-07T17:31:42.993Z,-3.40
2023-02-07T17:36:51.608Z,-3.30
2023-02-07T17:41:58.751Z,-3.50
2023-02-07T17:47:05.606Z,-3.40
2023-02-07T17:52:15.800Z,-3.30
2023-02-07T17:57:23.645Z,-3.50
2023-02-07T18:02:32.540Z,-3.80
2023-02-07T18:07:39.999Z,-3.90
2023-02-07T18:12:46.758Z,-4.00
2023-02-07T18:17:55.357Z,-4.90
2023-02-07T18:23:03.173Z,-4.40
2023-02-07T18:28:12.159Z,-4.40
2023-02-07T18:33:22.489Z,-4.50
2023-02-07T18:38:29.804Z,-5.00
2023-02-07T18:43:37.723Z,-5.00
2023-02-07T18:48:51.893Z,-4.70
2023-02-07T18:54:00.425Z,-4.70
2023-02-07T18:59:07.426Z,-4.90
2023-02-07T19:04:16.797Z,-4.90
2023-02-07T19:09:25.751Z,-5.40
2023-02-07T19:14:33.382Z,-5.90
2023-02-07T19:19:41.967Z,-5.70
2023-02-07T19:24:50.355Z,-6.30
2023-02-07T19:29:57.443Z,-6.30
2023-02-07T19:35:05.436Z,-6.20
2023-02-07T19:40:13.070Z,-6.40
2023-02-07T19:45:25.273Z,-6.20
2023-02-07T19:50:33.834Z,-6.00
2023-02-07T19:55:41.857Z,-6.50
2023-02-07T20:00:48.918Z,-6.90
2023-02-07T20:05:56.836Z,-7.00
2023-02-07T20:11:09.096Z,-7.10
2023-02-07T20:16:25.373Z,-6.70
2023-02-07T20:21:34.368Z,-7.00
2023-02-07T20:26:45.405Z,-6.90
2023-02-07T20:31:53.304Z,-7.00
2023-02-07T20:37:03.267Z,-6.80
2023-02-07T20:42:13.593Z,-6.50
2023-02-07T20:47:21.681Z,-6.90
2023-02-07T20:52:29.648Z,-7.00
2023-02-07T20:57:37.023Z,-6.80
2023-02-07T21:02:46.251Z,-6.80
2023-02-07T21:07:54.395Z,-6.90
2023-02-07T21:13:03.114Z,-7.20
2023-02-07T21:18:10.441Z,-7.30
2023-02-07T21:23:18.602Z,-7.30
2023-02-07T21:28:26.568Z,-7.20
2023-02-07T21:33:34.601Z,-7.60
2023-02-07T21:38:47.890Z,-7.60
2023-02-07T21:44:00.444Z,-7.40
2023-02-07T21:49:13.813Z,-7.20
2023-02-07T21:54:22.711Z,-7.00
2023-02-07T21:59:35.552Z,-7.00
2023-02-07T22:04:44.189Z,-7.00
2023-02-07T22:09:53.126Z,-7.40
2023-02-07T22:15:01.180Z,-7.60
2023-02-07T22:20:09.936Z,-7.30
2023-02-07T22:25:17.327Z,-7.30
2023-02-07T22:30:28.693Z,-7.50
2023-02-07T22:35:42.672Z,-7.30
2023-02-07T22:40:51.820Z,-7.30
2023-02-07T22:46:01.613Z,-7.70
2023-02-07T22:51:21.425Z,-7.80
2023-02-07T22:56:30.355Z,-7.70
2023-02-07T23:01:42.714Z,-7.70
2023-02-07T23:06:50.654Z,-7.70
2023-02-07T23:11:58.342Z,-7.60
2023-02-07T23:17:05.385Z,-8.10
2023-02-07T23:22:14.717Z,-8.10
2023-02-07T23:27:25.503Z,-8.10
2023-02-07T23:32:33.282Z,-8.10
2023-02-07T23:37:41.926Z,-8.00
2023-02-07T23:42:53.782Z,-8.60
2023-02-07T23:48:02.556Z,-8.20
2023-02-07T23:53:13.184Z,-8.60
2023-02-07T23:58:23.872Z,-8.50
